sensor_id;sensor_type;location;lat;lon;timestamp;P1;durP1;ratioP1;P2;durP2;ratioP2
9960;SDS011;5021;51.506;11.320;2022-10-17T00:00:43;4.17;;;3.37;;
9960;SDS011;5021;51.506;11.320;2022-10-17T00:03:09;5.30;;;2.90;;
9960;SDS011;5021;51.506;11.320;2022-10-17T00:05:39;4.00;;;2.90;;
9960;SDS011;5021;51.506;11.320;2022-10-17T00:08:05;3.23;;;2.93;;
9960;SDS011;5021;51.506;11.320;2022-10-17T00:10:31;2.87;;;2.57;;
9960;SDS011;5021;51.506;11.320;2022-10-17T00:12:57;4.23;;;2.63;;
9960;SDS011;5021;51.506;11.320;2022-10-17T00:15:23;3.63;;;2.97;;
9960;SDS011;5021;51.506;11.320;2022-10-17T00:17:49;7.13;;;3.07;;
9960;SDS011;5021;51.506;11.320;2022-10-17T00:20:15;3.70;;;3.10;;
9960;SDS011;5021;51.506;11.320;2022-10-17T00:22:41;3.67;;;3.20;;
9960;SDS011;5021;51.506;11.320;2022-10-17T00:25:07;5.30;;;3.63;;
9960;SDS011;5021;51.506;11.320;2022-10-17T00:27:34;6.10;;;4.70;;
9960;SDS011;5021;51.506;11.320;2022-10-17T00:30:00;10.33;;;6.90;;
9960;SDS011;5021;51.506;11.320;2022-10-17T00:32:26;7.40;;;4.63;;
9960;SDS011;5021;51.506;11.320;2022-10-17T00:34:52;5.93;;;5.07;;
9960;SDS011;5021;51.506;11.320;2022-10-17T00:37:18;6.47;;;4.07;;
9960;SDS011;5021;51.506;11.320;2022-10-17T00:39:44;5.50;;;4.50;;
9960;SDS011;5021;51.506;11.320;2022-10-17T00:42:13;5.03;;;3.60;;
9960;SDS011;5021;51.506;11.320;2022-10-17T00:47:07;3.70;;;3.17;;
9960;SDS011;5021;51.506;11.320;2022-10-17T00:49:35;3.63;;;3.30;;
9960;SDS011;5021;51.506;11.320;2022-10-17T00:52:02;6.43;;;4.00;;
9960;SDS011;5021;51.506;11.320;2022-10-17T00:54:33;4.50;;;3.10;;
9960;SDS011;5021;51.506;11.320;2022-10-17T00:56:59;2.73;;;2.53;;
9960;SDS011;5021;51.506;11.320;2022-10-17T00:59:27;4.90;;;2.57;;
9960;SDS011;5021;51.506;11.320;2022-10-17T01:02:11;4.03;;;2.67;;
9960;SDS011;5021;51.506;11.320;2022-10-17T01:04:38;3.00;;;2.43;;
9960;SDS011;5021;51.506;11.320;2022-10-17T01:07:05;5.13;;;2.20;;
9960;SDS011;5021;51.506;11.320;2022-10-17T01:09:31;2.60;;;2.40;;
9960;SDS011;5021;51.506;11.320;2022-10-17T01:12:06;3.23;;;2.50;;
9960;SDS011;5021;51.506;11.320;2022-10-17T01:14:39;4.13;;;2.37;;
9960;SDS011;5021;51.506;11.320;2022-10-17T01:27:37;4.73;;;2.63;;
9960;SDS011;5021;51.506;11.320;2022-10-17T01:33:16;2.40;;;2.20;;
9960;SDS011;5021;51.506;11.320;2022-10-17T01:35:47;4.00;;;2.70;;
9960;SDS011;5021;51.506;11.320;2022-10-17T01:40:49;2.20;;;2.00;;
9960;SDS011;5021;51.506;11.320;2022-10-17T01:43:19;2.20;;;2.00;;
9960;SDS011;5021;51.506;11.320;2022-10-17T01:45:48;2.37;;;2.17;;
9960;SDS011;5021;51.506;11.320;2022-10-17T01:48:19;2.83;;;2.10;;
9960;SDS011;5021;51.506;11.320;2022-10-17T01:50:47;3.63;;;2.20;;
9960;SDS011;5021;51.506;11.320;2022-10-17T01:53:27;2.70;;;2.40;;
9960;SDS011;5021;51.506;11.320;2022-10-17T01:55:53;2.23;;;2.03;;
9960;SDS011;5021;51.506;11.320;2022-10-17T01:58:22;3.90;;;2.27;;
9960;SDS011;5021;51.506;11.320;2022-10-17T02:00:51;2.33;;;2.10;;
9960;SDS011;5021;51.506;11.320;2022-10-17T02:03:18;4.20;;;2.40;;
9960;SDS011;5021;51.506;11.320;2022-10-17T02:05:45;2.70;;;2.50;;
9960;SDS011;5021;51.506;11.320;2022-10-17T02:08:11;2.57;;;2.10;;
9960;SDS011;5021;51.506;11.320;2022-10-17T02:21:19;2.20;;;2.00;;
9960;SDS011;5021;51.506;11.320;2022-10-17T02:24:37;2.77;;;2.57;;
9960;SDS011;5021;51.506;11.320;2022-10-17T02:26:37;3.20;;;2.07;;
9960;SDS011;5021;51.506;11.320;2022-10-17T02:29:06;2.30;;;2.10;;
9960;SDS011;5021;51.506;11.320;2022-10-17T02:31:35;2.23;;;2.03;;
9960;SDS011;5021;51.506;11.320;2022-10-17T02:34:04;2.60;;;2.10;;
9960;SDS011;5021;51.506;11.320;2022-10-17T02:36:33;3.37;;;2.30;;
9960;SDS011;5021;51.506;11.320;2022-10-17T02:39:01;2.97;;;2.00;;
9960;SDS011;5021;51.506;11.320;2022-10-17T02:41:27;2.50;;;2.30;;
9960;SDS011;5021;51.506;11.320;2022-10-17T02:43:54;2.40;;;2.20;;
9960;SDS011;5021;51.506;11.320;2022-10-17T02:46:21;3.47;;;2.17;;
9960;SDS011;5021;51.506;11.320;2022-10-17T02:48:56;2.30;;;2.10;;
9960;SDS011;5021;51.506;11.320;2022-10-17T02:56:21;3.83;;;2.47;;
9960;SDS011;5021;51.506;11.320;2022-10-17T02:58:49;2.60;;;2.40;;
9960;SDS011;5021;51.506;11.320;2022-10-17T03:01:16;5.60;;;2.70;;
9960;SDS011;5021;51.506;11.320;2022-10-17T03:03:43;2.80;;;2.30;;
9960;SDS011;5021;51.506;11.320;2022-10-17T03:06:09;4.53;;;2.30;;
9960;SDS011;5021;51.506;11.320;2022-10-17T03:08:35;3.17;;;2.27;;
9960;SDS011;5021;51.506;11.320;2022-10-17T03:11:01;2.20;;;2.00;;
9960;SDS011;5021;51.506;11.320;2022-10-17T03:13:28;2.50;;;2.30;;
9960;SDS011;5021;51.506;11.320;2022-10-17T03:15:55;3.23;;;2.30;;
9960;SDS011;5021;51.506;11.320;2022-10-17T03:18:21;3.93;;;2.47;;
9960;SDS011;5021;51.506;11.320;2022-10-17T03:20:47;3.83;;;2.70;;
9960;SDS011;5021;51.506;11.320;2022-10-17T03:23:13;2.83;;;2.60;;
9960;SDS011;5021;51.506;11.320;2022-10-17T03:25:39;2.93;;;2.47;;
9960;SDS011;5021;51.506;11.320;2022-10-17T03:28:05;2.30;;;2.10;;
9960;SDS011;5021;51.506;11.320;2022-10-17T03:30:31;4.57;;;2.53;;
9960;SDS011;5021;51.506;11.320;2022-10-17T03:32:57;3.30;;;3.00;;
9960;SDS011;5021;51.506;11.320;2022-10-17T03:35:24;3.13;;;2.40;;
9960;SDS011;5021;51.506;11.320;2022-10-17T03:37:50;4.13;;;2.60;;
9960;SDS011;5021;51.506;11.320;2022-10-17T03:40:16;2.50;;;2.30;;
9960;SDS011;5021;51.506;11.320;2022-10-17T03:42:42;3.07;;;2.77;;
9960;SDS011;5021;51.506;11.320;2022-10-17T03:45:08;3.43;;;2.60;;
9960;SDS011;5021;51.506;11.320;2022-10-17T03:47:34;3.00;;;2.30;;
9960;SDS011;5021;51.506;11.320;2022-10-17T03:50:00;3.23;;;2.40;;
9960;SDS011;5021;51.506;11.320;2022-10-17T03:52:27;2.93;;;2.50;;
9960;SDS011;5021;51.506;11.320;2022-10-17T03:54:53;4.20;;;2.53;;
9960;SDS011;5021;51.506;11.320;2022-10-17T03:57:19;3.67;;;2.40;;
9960;SDS011;5021;51.506;11.320;2022-10-17T03:59:45;2.77;;;2.30;;
9960;SDS011;5021;51.506;11.320;2022-10-17T04:02:11;2.50;;;2.30;;
9960;SDS011;5021;51.506;11.320;2022-10-17T04:04:37;1.87;;;1.77;;
9960;SDS011;5021;51.506;11.320;2022-10-17T04:07:03;2.30;;;2.10;;
9960;SDS011;5021;51.506;11.320;2022-10-17T04:09:29;2.37;;;2.17;;
9960;SDS011;5021;51.506;11.320;2022-10-17T04:11:54;3.00;;;2.70;;
9960;SDS011;5021;51.506;11.320;2022-10-17T04:14:20;3.43;;;2.40;;
9960;SDS011;5021;51.506;11.320;2022-10-17T04:16:46;3.17;;;2.33;;
9960;SDS011;5021;51.506;11.320;2022-10-17T04:19:12;2.50;;;2.30;;
9960;SDS011;5021;51.506;11.320;2022-10-17T04:21:38;3.23;;;2.40;;
9960;SDS011;5021;51.506;11.320;2022-10-17T04:24:04;2.70;;;2.50;;
9960;SDS011;5021;51.506;11.320;2022-10-17T04:26:30;5.07;;;3.20;;
9960;SDS011;5021;51.506;11.320;2022-10-17T04:28:56;4.70;;;3.50;;
9960;SDS011;5021;51.506;11.320;2022-10-17T04:31:22;6.47;;;4.30;;
9960;SDS011;5021;51.506;11.320;2022-10-17T04:33:49;10.83;;;6.27;;
9960;SDS011;5021;51.506;11.320;2022-10-17T04:36:16;6.20;;;5.70;;
9960;SDS011;5021;51.506;11.320;2022-10-17T04:38:42;6.33;;;5.73;;
9960;SDS011;5021;51.506;11.320;2022-10-17T04:41:12;7.17;;;3.90;;
9960;SDS011;5021;51.506;11.320;2022-10-17T04:43:39;4.30;;;3.90;;
9960;SDS011;5021;51.506;11.320;2022-10-17T04:46:06;3.97;;;3.50;;
9960;SDS011;5021;51.506;11.320;2022-10-17T04:48:32;3.87;;;3.57;;
9960;SDS011;5021;51.506;11.320;2022-10-17T04:50:59;4.07;;;3.67;;
9960;SDS011;5021;51.506;11.320;2022-10-17T04:53:26;3.70;;;3.40;;
9960;SDS011;5021;51.506;11.320;2022-10-17T04:55:52;3.73;;;3.33;;
9960;SDS011;5021;51.506;11.320;2022-10-17T04:58:18;3.20;;;2.90;;
9960;SDS011;5021;51.506;11.320;2022-10-17T05:00:45;3.50;;;2.70;;
9960;SDS011;5021;51.506;11.320;2022-10-17T05:03:11;4.83;;;2.77;;
9960;SDS011;5021;51.506;11.320;2022-10-17T05:05:37;2.83;;;2.43;;
9960;SDS011;5021;51.506;11.320;2022-10-17T05:08:04;3.60;;;2.70;;
9960;SDS011;5021;51.506;11.320;2022-10-17T05:10:30;2.60;;;2.40;;
9960;SDS011;5021;51.506;11.320;2022-10-17T05:13:00;3.80;;;3.17;;
9960;SDS011;5021;51.506;11.320;2022-10-17T05:15:26;3.53;;;3.10;;
9960;SDS011;5021;51.506;11.320;2022-10-17T05:17:55;4.57;;;3.10;;
9960;SDS011;5021;51.506;11.320;2022-10-17T05:20:22;5.13;;;3.73;;
9960;SDS011;5021;51.506;11.320;2022-10-17T05:22:48;5.47;;;3.93;;
9960;SDS011;5021;51.506;11.320;2022-10-17T05:25:14;4.13;;;3.63;;
9960;SDS011;5021;51.506;11.320;2022-10-17T05:27:40;6.50;;;3.83;;
9960;SDS011;5021;51.506;11.320;2022-10-17T05:30:06;4.33;;;3.93;;
9960;SDS011;5021;51.506;11.320;2022-10-17T05:32:32;4.07;;;3.60;;
9960;SDS011;5021;51.506;11.320;2022-10-17T05:34:58;3.83;;;3.23;;
9960;SDS011;5021;51.506;11.320;2022-10-17T05:37:24;3.80;;;3.30;;
9960;SDS011;5021;51.506;11.320;2022-10-17T05:39:50;3.87;;;2.90;;
9960;SDS011;5021;51.506;11.320;2022-10-17T05:42:16;2.90;;;2.67;;
9960;SDS011;5021;51.506;11.320;2022-10-17T05:44:42;3.53;;;3.20;;
9960;SDS011;5021;51.506;11.320;2022-10-17T05:47:08;3.47;;;3.17;;
9960;SDS011;5021;51.506;11.320;2022-10-17T05:49:34;4.10;;;3.60;;
9960;SDS011;5021;51.506;11.320;2022-10-17T05:52:00;7.07;;;5.40;;
9960;SDS011;5021;51.506;11.320;2022-10-17T05:54:26;8.77;;;6.40;;
9960;SDS011;5021;51.506;11.320;2022-10-17T05:56:52;6.90;;;6.20;;
9960;SDS011;5021;51.506;11.320;2022-10-17T05:59:19;9.17;;;5.97;;
9960;SDS011;5021;51.506;11.320;2022-10-17T06:01:45;8.53;;;7.20;;
9960;SDS011;5021;51.506;11.320;2022-10-17T06:04:11;7.67;;;6.97;;
9960;SDS011;5021;51.506;11.320;2022-10-17T06:06:37;9.03;;;7.30;;
9960;SDS011;5021;51.506;11.320;2022-10-17T06:09:03;15.57;;;11.13;;
9960;SDS011;5021;51.506;11.320;2022-10-17T06:11:29;14.27;;;11.33;;
9960;SDS011;5021;51.506;11.320;2022-10-17T06:13:55;21.33;;;13.73;;
9960;SDS011;5021;51.506;11.320;2022-10-17T06:16:21;15.73;;;11.27;;
9960;SDS011;5021;51.506;11.320;2022-10-17T06:18:47;15.57;;;11.07;;
9960;SDS011;5021;51.506;11.320;2022-10-17T06:21:14;22.93;;;16.23;;
9960;SDS011;5021;51.506;11.320;2022-10-17T06:23:40;20.50;;;14.73;;
9960;SDS011;5021;51.506;11.320;2022-10-17T06:26:06;24.27;;;16.23;;
9960;SDS011;5021;51.506;11.320;2022-10-17T06:28:32;24.03;;;16.20;;
9960;SDS011;5021;51.506;11.320;2022-10-17T06:30:58;24.80;;;16.50;;
9960;SDS011;5021;51.506;11.320;2022-10-17T06:33:24;22.30;;;15.87;;
9960;SDS011;5021;51.506;11.320;2022-10-17T06:35:54;19.13;;;13.17;;
9960;SDS011;5021;51.506;11.320;2022-10-17T06:38:21;21.80;;;14.07;;
9960;SDS011;5021;51.506;11.320;2022-10-17T06:40:47;19.50;;;13.13;;
9960;SDS011;5021;51.506;11.320;2022-10-17T06:43:13;18.03;;;12.90;;
9960;SDS011;5021;51.506;11.320;2022-10-17T06:45:39;17.10;;;11.70;;
9960;SDS011;5021;51.506;11.320;2022-10-17T06:48:06;13.27;;;10.07;;
9960;SDS011;5021;51.506;11.320;2022-10-17T06:50:32;11.57;;;9.37;;
9960;SDS011;5021;51.506;11.320;2022-10-17T06:52:58;11.47;;;8.73;;
9960;SDS011;5021;51.506;11.320;2022-10-17T06:55:24;10.10;;;8.77;;
9960;SDS011;5021;51.506;11.320;2022-10-17T06:57:50;12.23;;;9.53;;
9960;SDS011;5021;51.506;11.320;2022-10-17T07:00:16;9.10;;;7.67;;
9960;SDS011;5021;51.506;11.320;2022-10-17T07:02:42;11.00;;;8.23;;
9960;SDS011;5021;51.506;11.320;2022-10-17T07:05:08;9.43;;;7.43;;
9960;SDS011;5021;51.506;11.320;2022-10-17T07:07:35;13.33;;;7.80;;
9960;SDS011;5021;51.506;11.320;2022-10-17T07:10:01;10.80;;;8.27;;
9960;SDS011;5021;51.506;11.320;2022-10-17T07:12:28;6.13;;;4.50;;
9960;SDS011;5021;51.506;11.320;2022-10-17T07:14:54;5.47;;;4.80;;
9960;SDS011;5021;51.506;11.320;2022-10-17T07:17:20;6.57;;;4.90;;
9960;SDS011;5021;51.506;11.320;2022-10-17T07:19:46;5.20;;;4.37;;
9960;SDS011;5021;51.506;11.320;2022-10-17T07:22:12;4.60;;;4.07;;
9960;SDS011;5021;51.506;11.320;2022-10-17T07:24:38;5.10;;;4.60;;
9960;SDS011;5021;51.506;11.320;2022-10-17T07:27:04;7.50;;;4.50;;
9960;SDS011;5021;51.506;11.320;2022-10-17T07:29:30;5.83;;;3.90;;
9960;SDS011;5021;51.506;11.320;2022-10-17T07:31:56;6.30;;;4.10;;
9960;SDS011;5021;51.506;11.320;2022-10-17T07:34:22;7.27;;;4.30;;
9960;SDS011;5021;51.506;11.320;2022-10-17T07:36:51;11.83;;;9.00;;
9960;SDS011;5021;51.506;11.320;2022-10-17T07:39:17;9.33;;;6.90;;
9960;SDS011;5021;51.506;11.320;2022-10-17T07:41:43;9.00;;;8.13;;
9960;SDS011;5021;51.506;11.320;2022-10-17T07:44:09;6.50;;;5.70;;
9960;SDS011;5021;51.506;11.320;2022-10-17T07:46:35;5.23;;;4.73;;
9960;SDS011;5021;51.506;11.320;2022-10-17T07:49:01;7.17;;;5.30;;
9960;SDS011;5021;51.506;11.320;2022-10-17T07:51:27;9.50;;;8.70;;
9960;SDS011;5021;51.506;11.320;2022-10-17T07:53:53;6.67;;;5.97;;
9960;SDS011;5021;51.506;11.320;2022-10-17T07:56:19;4.47;;;4.07;;
9960;SDS011;5021;51.506;11.320;2022-10-17T07:58:48;4.67;;;3.80;;
9960;SDS011;5021;51.506;11.320;2022-10-17T08:01:14;4.23;;;3.83;;
9960;SDS011;5021;51.506;11.320;2022-10-17T08:03:42;5.23;;;3.70;;
9960;SDS011;5021;51.506;11.320;2022-10-17T08:06:08;4.40;;;3.80;;
9960;SDS011;5021;51.506;11.320;2022-10-17T08:08:34;5.10;;;4.60;;
9960;SDS011;5021;51.506;11.320;2022-10-17T08:11:01;4.20;;;3.80;;
9960;SDS011;5021;51.506;11.320;2022-10-17T08:13:27;5.37;;;4.23;;
9960;SDS011;5021;51.506;11.320;2022-10-17T08:15:57;4.90;;;4.43;;
9960;SDS011;5021;51.506;11.320;2022-10-17T08:18:23;5.80;;;4.10;;
9960;SDS011;5021;51.506;11.320;2022-10-17T08:20:49;4.70;;;4.20;;
9960;SDS011;5021;51.506;11.320;2022-10-17T08:23:15;5.37;;;4.03;;
9960;SDS011;5021;51.506;11.320;2022-10-17T08:25:41;4.37;;;3.97;;
9960;SDS011;5021;51.506;11.320;2022-10-17T08:28:07;4.40;;;3.67;;
9960;SDS011;5021;51.506;11.320;2022-10-17T08:30:33;4.20;;;3.53;;
9960;SDS011;5021;51.506;11.320;2022-10-17T08:32:59;3.60;;;3.30;;
9960;SDS011;5021;51.506;11.320;2022-10-17T08:35:25;3.47;;;3.17;;
9960;SDS011;5021;51.506;11.320;2022-10-17T08:37:51;6.03;;;3.60;;
9960;SDS011;5021;51.506;11.320;2022-10-17T08:40:19;5.30;;;3.30;;
9960;SDS011;5021;51.506;11.320;2022-10-17T08:47:52;7.63;;;3.10;;
9960;SDS011;5021;51.506;11.320;2022-10-17T08:55:46;4.23;;;2.70;;
9960;SDS011;5021;51.506;11.320;2022-10-17T08:58:13;4.43;;;2.70;;
9960;SDS011;5021;51.506;11.320;2022-10-17T09:00:41;4.77;;;2.27;;
9960;SDS011;5021;51.506;11.320;2022-10-17T09:03:20;4.10;;;2.83;;
9960;SDS011;5021;51.506;11.320;2022-10-17T09:05:54;4.73;;;2.40;;
9960;SDS011;5021;51.506;11.320;2022-10-17T09:11:24;3.90;;;2.50;;
9960;SDS011;5021;51.506;11.320;2022-10-17T09:13:54;2.20;;;2.00;;
9960;SDS011;5021;51.506;11.320;2022-10-17T09:16:39;2.60;;;2.20;;
9960;SDS011;5021;51.506;11.320;2022-10-17T09:19:56;2.43;;;2.20;;
9960;SDS011;5021;51.506;11.320;2022-10-17T09:21:57;2.67;;;2.30;;
9960;SDS011;5021;51.506;11.320;2022-10-17T09:26:59;3.70;;;2.03;;
9960;SDS011;5021;51.506;11.320;2022-10-17T09:29:26;2.83;;;2.10;;
9960;SDS011;5021;51.506;11.320;2022-10-17T09:34:21;3.57;;;2.33;;
9960;SDS011;5021;51.506;11.320;2022-10-17T09:36:47;3.73;;;2.20;;
9960;SDS011;5021;51.506;11.320;2022-10-17T09:39:15;2.73;;;2.10;;
9960;SDS011;5021;51.506;11.320;2022-10-17T09:41:43;2.97;;;2.30;;
9960;SDS011;5021;51.506;11.320;2022-10-17T09:46:36;3.47;;;2.27;;
9960;SDS011;5021;51.506;11.320;2022-10-17T09:51:29;4.17;;;2.20;;
9960;SDS011;5021;51.506;11.320;2022-10-17T09:53:56;3.17;;;2.30;;
9960;SDS011;5021;51.506;11.320;2022-10-17T09:56:24;2.53;;;2.10;;
9960;SDS011;5021;51.506;11.320;2022-10-17T09:58:51;3.47;;;2.37;;
9960;SDS011;5021;51.506;11.320;2022-10-17T10:03:45;2.60;;;2.10;;
9960;SDS011;5021;51.506;11.320;2022-10-17T10:06:16;4.70;;;2.10;;
9960;SDS011;5021;51.506;11.320;2022-10-17T10:08:55;3.77;;;2.30;;
9960;SDS011;5021;51.506;11.320;2022-10-17T10:14:27;3.27;;;2.10;;
9960;SDS011;5021;51.506;11.320;2022-10-17T10:16:54;2.50;;;2.30;;
9960;SDS011;5021;51.506;11.320;2022-10-17T10:19:27;4.60;;;2.00;;
9960;SDS011;5021;51.506;11.320;2022-10-17T10:21:59;3.80;;;2.43;;
9960;SDS011;5021;51.506;11.320;2022-10-17T10:24:25;3.40;;;2.20;;
9960;SDS011;5021;51.506;11.320;2022-10-17T10:26:52;4.27;;;2.47;;
9960;SDS011;5021;51.506;11.320;2022-10-17T10:31:45;2.47;;;2.27;;
9960;SDS011;5021;51.506;11.320;2022-10-17T10:34:14;3.47;;;2.30;;
9960;SDS011;5021;51.506;11.320;2022-10-17T10:36:41;5.10;;;2.10;;
9960;SDS011;5021;51.506;11.320;2022-10-17T10:39:08;3.63;;;2.23;;
9960;SDS011;5021;51.506;11.320;2022-10-17T10:41:45;3.27;;;2.50;;
9960;SDS011;5021;51.506;11.320;2022-10-17T10:44:12;5.03;;;2.30;;
9960;SDS011;5021;51.506;11.320;2022-10-17T10:46:40;2.23;;;1.87;;
9960;SDS011;5021;51.506;11.320;2022-10-17T10:49:06;6.20;;;2.43;;
9960;SDS011;5021;51.506;11.320;2022-10-17T10:51:52;4.60;;;2.50;;
9960;SDS011;5021;51.506;11.320;2022-10-17T10:54:22;3.30;;;2.27;;
9960;SDS011;5021;51.506;11.320;2022-10-17T10:56:54;3.63;;;2.17;;
9960;SDS011;5021;51.506;11.320;2022-10-17T10:59:38;3.37;;;2.37;;
9960;SDS011;5021;51.506;11.320;2022-10-17T11:04:57;3.00;;;2.27;;
9960;SDS011;5021;51.506;11.320;2022-10-17T11:07:26;3.90;;;2.20;;
9960;SDS011;5021;51.506;11.320;2022-10-17T11:09:57;3.70;;;2.33;;
9960;SDS011;5021;51.506;11.320;2022-10-17T11:14:55;3.13;;;1.93;;
9960;SDS011;5021;51.506;11.320;2022-10-17T11:17:26;5.47;;;2.50;;
9960;SDS011;5021;51.506;11.320;2022-10-17T11:19:57;4.50;;;2.50;;
9960;SDS011;5021;51.506;11.320;2022-10-17T11:22:27;5.43;;;2.23;;
9960;SDS011;5021;51.506;11.320;2022-10-17T11:24:57;4.00;;;2.10;;
9960;SDS011;5021;51.506;11.320;2022-10-17T11:27:25;4.67;;;2.10;;
9960;SDS011;5021;51.506;11.320;2022-10-17T11:29:52;4.10;;;1.97;;
9960;SDS011;5021;51.506;11.320;2022-10-17T11:34:49;6.77;;;2.40;;
9960;SDS011;5021;51.506;11.320;2022-10-17T11:37:17;3.30;;;2.40;;
9960;SDS011;5021;51.506;11.320;2022-10-17T11:39:59;3.63;;;2.40;;
9960;SDS011;5021;51.506;11.320;2022-10-17T11:42:29;3.97;;;2.30;;
9960;SDS011;5021;51.506;11.320;2022-10-17T11:44:58;3.47;;;2.17;;
9960;SDS011;5021;51.506;11.320;2022-10-17T11:47:27;6.03;;;2.20;;
9960;SDS011;5021;51.506;11.320;2022-10-17T11:50:00;3.30;;;2.20;;
9960;SDS011;5021;51.506;11.320;2022-10-17T11:54:58;4.13;;;2.10;;
9960;SDS011;5021;51.506;11.320;2022-10-17T12:02:49;3.00;;;2.03;;
9960;SDS011;5021;51.506;11.320;2022-10-17T12:10:19;4.07;;;2.13;;
9960;SDS011;5021;51.506;11.320;2022-10-17T12:12:49;2.97;;;1.70;;
9960;SDS011;5021;51.506;11.320;2022-10-17T12:17:45;2.07;;;1.80;;
9960;SDS011;5021;51.506;11.320;2022-10-17T12:22:50;2.33;;;1.80;;
9960;SDS011;5021;51.506;11.320;2022-10-17T12:25:18;2.50;;;1.90;;
9960;SDS011;5021;51.506;11.320;2022-10-17T12:27:45;2.77;;;1.90;;
9960;SDS011;5021;51.506;11.320;2022-10-17T12:35:19;4.03;;;2.10;;
9960;SDS011;5021;51.506;11.320;2022-10-17T12:43:00;2.97;;;1.90;;
9960;SDS011;5021;51.506;11.320;2022-10-17T12:48:11;5.53;;;2.10;;
9960;SDS011;5021;51.506;11.320;2022-10-17T12:53:22;5.57;;;1.90;;
9960;SDS011;5021;51.506;11.320;2022-10-17T12:55:57;4.37;;;2.10;;
9960;SDS011;5021;51.506;11.320;2022-10-17T12:58:23;2.90;;;1.90;;
9960;SDS011;5021;51.506;11.320;2022-10-17T13:00:50;2.10;;;1.90;;
9960;SDS011;5021;51.506;11.320;2022-10-17T13:03:18;4.53;;;2.00;;
9960;SDS011;5021;51.506;11.320;2022-10-17T13:06:04;5.13;;;1.80;;
9960;SDS011;5021;51.506;11.320;2022-10-17T13:08:42;4.43;;;1.80;;
9960;SDS011;5021;51.506;11.320;2022-10-17T13:11:09;4.60;;;1.97;;
9960;SDS011;5021;51.506;11.320;2022-10-17T13:16:01;2.50;;;1.70;;
9960;SDS011;5021;51.506;11.320;2022-10-17T13:18:28;3.23;;;1.80;;
9960;SDS011;5021;51.506;11.320;2022-10-17T13:20:55;3.43;;;2.03;;
9960;SDS011;5021;51.506;11.320;2022-10-17T13:23:24;2.67;;;1.77;;
9960;SDS011;5021;51.506;11.320;2022-10-17T13:26:11;2.53;;;1.80;;
9960;SDS011;5021;51.506;11.320;2022-10-17T13:28:38;3.70;;;1.70;;
9960;SDS011;5021;51.506;11.320;2022-10-17T13:31:04;7.07;;;1.80;;
9960;SDS011;5021;51.506;11.320;2022-10-17T13:33:32;3.40;;;1.90;;
9960;SDS011;5021;51.506;11.320;2022-10-17T13:35:58;5.00;;;1.93;;
9960;SDS011;5021;51.506;11.320;2022-10-17T13:38:26;5.97;;;2.17;;
9960;SDS011;5021;51.506;11.320;2022-10-17T13:40:52;3.17;;;1.90;;
9960;SDS011;5021;51.506;11.320;2022-10-17T13:43:19;4.03;;;1.80;;
9960;SDS011;5021;51.506;11.320;2022-10-17T13:45:48;5.13;;;2.37;;
9960;SDS011;5021;51.506;11.320;2022-10-17T13:48:17;2.40;;;1.93;;
9960;SDS011;5021;51.506;11.320;2022-10-17T13:50:45;4.53;;;1.90;;
9960;SDS011;5021;51.506;11.320;2022-10-17T13:55:38;4.30;;;1.90;;
9960;SDS011;5021;51.506;11.320;2022-10-17T13:58:14;2.73;;;1.87;;
9960;SDS011;5021;51.506;11.320;2022-10-17T14:00:40;2.60;;;1.60;;
9960;SDS011;5021;51.506;11.320;2022-10-17T14:03:06;4.43;;;1.80;;
9960;SDS011;5021;51.506;11.320;2022-10-17T14:05:32;5.10;;;1.90;;
9960;SDS011;5021;51.506;11.320;2022-10-17T14:08:03;2.63;;;1.87;;
9960;SDS011;5021;51.506;11.320;2022-10-17T14:10:30;5.07;;;1.90;;
9960;SDS011;5021;51.506;11.320;2022-10-17T14:12:56;3.13;;;1.90;;
9960;SDS011;5021;51.506;11.320;2022-10-17T14:15:32;3.07;;;1.83;;
9960;SDS011;5021;51.506;11.320;2022-10-17T14:17:59;5.23;;;2.10;;
9960;SDS011;5021;51.506;11.320;2022-10-17T14:20:26;3.63;;;2.00;;
9960;SDS011;5021;51.506;11.320;2022-10-17T14:22:53;4.17;;;1.90;;
9960;SDS011;5021;51.506;11.320;2022-10-17T14:25:32;5.73;;;2.00;;
9960;SDS011;5021;51.506;11.320;2022-10-17T14:30:31;2.50;;;1.60;;
9960;SDS011;5021;51.506;11.320;2022-10-17T14:32:58;5.33;;;2.10;;
9960;SDS011;5021;51.506;11.320;2022-10-17T14:35:27;4.23;;;2.30;;
9960;SDS011;5021;51.506;11.320;2022-10-17T14:37:56;2.57;;;2.00;;
9960;SDS011;5021;51.506;11.320;2022-10-17T14:40:24;7.93;;;2.20;;
9960;SDS011;5021;51.506;11.320;2022-10-17T14:42:51;5.37;;;2.20;;
9960;SDS011;5021;51.506;11.320;2022-10-17T14:47:50;2.93;;;1.77;;
9960;SDS011;5021;51.506;11.320;2022-10-17T14:50:22;5.10;;;1.97;;
9960;SDS011;5021;51.506;11.320;2022-10-17T14:53:01;2.87;;;1.87;;
9960;SDS011;5021;51.506;11.320;2022-10-17T14:55:29;3.07;;;1.97;;
9960;SDS011;5021;51.506;11.320;2022-10-17T14:57:55;5.50;;;2.03;;
9960;SDS011;5021;51.506;11.320;2022-10-17T15:00:21;3.57;;;2.13;;
9960;SDS011;5021;51.506;11.320;2022-10-17T15:02:48;4.77;;;2.03;;
9960;SDS011;5021;51.506;11.320;2022-10-17T15:05:14;3.70;;;2.00;;
9960;SDS011;5021;51.506;11.320;2022-10-17T15:07:41;4.93;;;2.13;;
9960;SDS011;5021;51.506;11.320;2022-10-17T15:12:51;3.43;;;2.20;;
9960;SDS011;5021;51.506;11.320;2022-10-17T15:15:17;3.80;;;2.00;;
9960;SDS011;5021;51.506;11.320;2022-10-17T15:17:43;4.47;;;2.20;;
9960;SDS011;5021;51.506;11.320;2022-10-17T15:20:11;3.43;;;2.13;;
9960;SDS011;5021;51.506;11.320;2022-10-17T15:22:37;4.43;;;1.90;;
9960;SDS011;5021;51.506;11.320;2022-10-17T15:25:03;6.93;;;2.13;;
9960;SDS011;5021;51.506;11.320;2022-10-17T15:27:29;3.63;;;1.90;;
9960;SDS011;5021;51.506;11.320;2022-10-17T15:29:56;4.60;;;2.00;;
9960;SDS011;5021;51.506;11.320;2022-10-17T15:32:22;2.57;;;2.00;;
9960;SDS011;5021;51.506;11.320;2022-10-17T15:34:48;2.77;;;2.07;;
9960;SDS011;5021;51.506;11.320;2022-10-17T15:39:46;3.43;;;1.90;;
9960;SDS011;5021;51.506;11.320;2022-10-17T15:42:16;4.10;;;2.07;;
9960;SDS011;5021;51.506;11.320;2022-10-17T15:44:42;6.20;;;2.10;;
9960;SDS011;5021;51.506;11.320;2022-10-17T15:47:18;6.87;;;2.00;;
9960;SDS011;5021;51.506;11.320;2022-10-17T15:49:47;3.17;;;1.80;;
9960;SDS011;5021;51.506;11.320;2022-10-17T15:52:13;3.50;;;2.30;;
9960;SDS011;5021;51.506;11.320;2022-10-17T15:54:39;2.83;;;2.03;;
9960;SDS011;5021;51.506;11.320;2022-10-17T15:57:05;3.47;;;2.00;;
9960;SDS011;5021;51.506;11.320;2022-10-17T15:59:32;3.93;;;2.10;;
9960;SDS011;5021;51.506;11.320;2022-10-17T16:01:59;5.40;;;2.17;;
9960;SDS011;5021;51.506;11.320;2022-10-17T16:04:25;4.90;;;2.40;;
9960;SDS011;5021;51.506;11.320;2022-10-17T16:06:53;5.93;;;2.53;;
9960;SDS011;5021;51.506;11.320;2022-10-17T16:09:19;5.80;;;2.27;;
9960;SDS011;5021;51.506;11.320;2022-10-17T16:11:44;5.17;;;1.97;;
9960;SDS011;5021;51.506;11.320;2022-10-17T16:14:12;5.47;;;1.97;;
9960;SDS011;5021;51.506;11.320;2022-10-17T16:16:38;2.87;;;2.03;;
9960;SDS011;5021;51.506;11.320;2022-10-17T16:19:04;5.90;;;2.03;;
9960;SDS011;5021;51.506;11.320;2022-10-17T16:21:32;3.47;;;2.10;;
9960;SDS011;5021;51.506;11.320;2022-10-17T16:23:58;4.30;;;1.80;;
9960;SDS011;5021;51.506;11.320;2022-10-17T16:26:24;3.60;;;2.10;;
9960;SDS011;5021;51.506;11.320;2022-10-17T16:28:50;5.07;;;2.20;;
9960;SDS011;5021;51.506;11.320;2022-10-17T16:33:42;4.40;;;2.10;;
9960;SDS011;5021;51.506;11.320;2022-10-17T16:36:08;3.90;;;1.93;;
9960;SDS011;5021;51.506;11.320;2022-10-17T16:38:34;4.00;;;2.20;;
9960;SDS011;5021;51.506;11.320;2022-10-17T16:41:00;3.23;;;2.30;;
9960;SDS011;5021;51.506;11.320;2022-10-17T16:43:26;4.47;;;2.10;;
9960;SDS011;5021;51.506;11.320;2022-10-17T16:45:56;5.20;;;2.17;;
9960;SDS011;5021;51.506;11.320;2022-10-17T16:48:22;2.67;;;2.00;;
9960;SDS011;5021;51.506;11.320;2022-10-17T16:50:48;4.30;;;2.30;;
9960;SDS011;5021;51.506;11.320;2022-10-17T16:53:14;2.30;;;2.10;;
9960;SDS011;5021;51.506;11.320;2022-10-17T16:55:39;3.77;;;2.10;;
9960;SDS011;5021;51.506;11.320;2022-10-17T16:58:05;4.13;;;2.27;;
9960;SDS011;5021;51.506;11.320;2022-10-17T17:00:31;1.97;;;1.70;;
9960;SDS011;5021;51.506;11.320;2022-10-17T17:02:57;2.10;;;1.90;;
9960;SDS011;5021;51.506;11.320;2022-10-17T17:05:23;6.97;;;2.60;;
9960;SDS011;5021;51.506;11.320;2022-10-17T17:07:50;3.47;;;2.07;;